sensor_id;sensor_type;location;lat;lon;timestamp;temperature;humidity
24103;DHT22;12278;53.058;9.028;2022-07-23T00:02:11;15.60;99.90
24103;DHT22;12278;53.058;9.028;2022-07-23T00:06:12;15.60;99.90
24103;DHT22;12278;53.058;9.028;2022-07-23T00:10:13;15.60;99.90
24103;DHT22;12278;53.058;9.028;2022-07-23T00:14:13;15.60;99.90
24103;DHT22;12278;53.058;9.028;2022-07-23T00:18:14;15.60;99.90
24103;DHT22;12278;53.058;9.028;2022-07-23T00:22:15;15.60;99.90
24103;DHT22;12278;53.058;9.028;2022-07-23T00:26:16;15.50;99.90
24103;DHT22;12278;53.058;9.028;2022-07-23T00:30:17;15.60;99.90
24103;DHT22;12278;53.058;9.028;2022-07-23T00:34:18;15.60;99.90
24103;DHT22;12278;53.058;9.028;2022-07-23T00:38:19;15.50;99.90
24103;DHT22;12278;53.058;9.028;2022-07-23T00:42:20;15.40;99.90
24103;DHT22;12278;53.058;9.028;2022-07-23T00:46:22;15.40;99.90
24103;DHT22;12278;53.058;9.028;2022-07-23T00:50:23;15.40;99.90
24103;DHT22;12278;53.058;9.028;2022-07-23T00:54:26;15.20;99.90
24103;DHT22;12278;53.058;9.028;2022-07-23T00:58:27;15.10;99.90
24103;DHT22;12278;53.058;9.028;2022-07-23T01:02:28;15.00;99.90
24103;DHT22;12278;53.058;9.028;2022-07-23T01:06:31;15.00;99.90
24103;DHT22;12278;53.058;9.028;2022-07-23T01:10:35;15.10;99.90
24103;DHT22;12278;53.058;9.028;2022-07-23T01:14:36;15.10;99.90
24103;DHT22;12278;53.058;9.028;2022-07-23T01:18:37;15.10;99.90
24103;DHT22;12278;53.058;9.028;2022-07-23T01:22:38;15.10;99.90
24103;DHT22;12278;53.058;9.028;2022-07-23T01:26:42;15.10;99.90
24103;DHT22;12278;53.058;9.028;2022-07-23T01:30:45;15.00;99.90
24103;DHT22;12278;53.058;9.028;2022-07-23T01:34:47;15.00;99.90
24103;DHT22;12278;53.058;9.028;2022-07-23T01:38:49;14.90;99.90
24103;DHT22;12278;53.058;9.028;2022-07-23T01:42:50;14.80;99.90
24103;DHT22;12278;53.058;9.028;2022-07-23T01:46:51;14.60;99.90
24103;DHT22;12278;53.058;9.028;2022-07-23T01:50:52;14.50;99.90
24103;DHT22;12278;53.058;9.028;2022-07-23T01:54:53;14.70;99.90
24103;DHT22;12278;53.058;9.028;2022-07-23T01:58:54;14.60;99.90
24103;DHT22;12278;53.058;9.028;2022-07-23T02:02:54;14.70;99.90
24103;DHT22;12278;53.058;9.028;2022-07-23T02:06:55;14.60;99.90
24103;DHT22;12278;53.058;9.028;2022-07-23T02:10:56;14.70;99.90
24103;DHT22;12278;53.058;9.028;2022-07-23T02:14:57;14.70;99.90
24103;DHT22;12278;53.058;9.028;2022-07-23T02:18:58;14.60;99.90
24103;DHT22;12278;53.058;9.028;2022-07-23T02:22:59;14.70;99.90
24103;DHT22;12278;53.058;9.028;2022-07-23T02:26:59;14.80;99.90
24103;DHT22;12278;53.058;9.028;2022-07-23T02:31:00;14.90;99.90
24103;DHT22;12278;53.058;9.028;2022-07-23T02:35:02;15.00;99.90
24103;DHT22;12278;53.058;9.028;2022-07-23T02:39:04;15.00;99.90
24103;DHT22;12278;53.058;9.028;2022-07-23T02:43:11;14.90;99.90
24103;DHT22;12278;53.058;9.028;2022-07-23T02:47:11;14.90;99.90
24103;DHT22;12278;53.058;9.028;2022-07-23T02:51:12;14.80;99.90
24103;DHT22;12278;53.058;9.028;2022-07-23T02:55:13;14.80;99.90
24103;DHT22;12278;53.058;9.028;2022-07-23T02:59:14;14.80;99.90
24103;DHT22;12278;53.058;9.028;2022-07-23T03:03:15;14.90;99.90
24103;DHT22;12278;53.058;9.028;2022-07-23T03:07:19;14.70;99.90
24103;DHT22;12278;53.058;9.028;2022-07-23T03:11:19;14.90;99.90
24103;DHT22;12278;53.058;9.028;2022-07-23T03:15:20;14.90;99.90
24103;DHT22;12278;53.058;9.028;2022-07-23T03:19:21;15.00;99.90
24103;DHT22;12278;53.058;9.028;2022-07-23T03:23:22;15.00;99.90
24103;DHT22;12278;53.058;9.028;2022-07-23T03:27:24;14.90;99.90
24103;DHT22;12278;53.058;9.028;2022-07-23T03:31:27;14.80;99.90
24103;DHT22;12278;53.058;9.028;2022-07-23T03:35:28;14.80;99.90
24103;DHT22;12278;53.058;9.028;2022-07-23T03:39:30;14.80;99.90
24103;DHT22;12278;53.058;9.028;2022-07-23T03:43:31;14.70;99.90
24103;DHT22;12278;53.058;9.028;2022-07-23T03:47:31;14.70;99.90
24103;DHT22;12278;53.058;9.028;2022-07-23T03:51:33;14.60;99.90
24103;DHT22;12278;53.058;9.028;2022-07-23T03:55:34;14.60;99.90
24103;DHT22;12278;53.058;9.028;2022-07-23T03:59:35;14.50;99.90
24103;DHT22;12278;53.058;9.028;2022-07-23T04:03:36;14.50;99.90
24103;DHT22;12278;53.058;9.028;2022-07-23T04:07:37;14.40;99.90
24103;DHT22;12278;53.058;9.028;2022-07-23T04:11:37;14.50;99.90
24103;DHT22;12278;53.058;9.028;2022-07-23T04:15:38;14.40;99.90
24103;DHT22;12278;53.058;9.028;2022-07-23T04:19:39;14.30;99.90
24103;DHT22;12278;53.058;9.028;2022-07-23T04:23:41;14.40;99.90
24103;DHT22;12278;53.058;9.028;2022-07-23T04:27:43;14.40;99.90
24103;DHT22;12278;53.058;9.028;2022-07-23T04:31:44;14.40;99.90
24103;DHT22;12278;53.058;9.028;2022-07-23T04:35:45;14.30;99.90
24103;DHT22;12278;53.058;9.028;2022-07-23T04:39:46;14.30;99.90
24103;DHT22;12278;53.058;9.028;2022-07-23T04:43:47;14.30;99.90
24103;DHT22;12278;53.058;9.028;2022-07-23T04:47:48;14.30;99.90
24103;DHT22;12278;53.058;9.028;2022-07-23T04:51:48;14.40;99.90
24103;DHT22;12278;53.058;9.028;2022-07-23T04:55:49;14.40;99.90
24103;DHT22;12278;53.058;9.028;2022-07-23T04:59:50;14.50;99.90
24103;DHT22;12278;53.058;9.028;2022-07-23T05:03:51;14.60;99.90
24103;DHT22;12278;53.058;9.028;2022-07-23T05:07:52;14.70;99.90
24103;DHT22;12278;53.058;9.028;2022-07-23T05:11:55;14.80;99.90
24103;DHT22;12278;53.058;9.028;2022-07-23T05:15:56;14.80;99.90
24103;DHT22;12278;53.058;9.028;2022-07-23T05:19:57;15.00;99.90
24103;DHT22;12278;53.058;9.028;2022-07-23T05:24:02;15.00;99.90
24103;DHT22;12278;53.058;9.028;2022-07-23T05:28:03;15.10;99.90
24103;DHT22;12278;53.058;9.028;2022-07-23T05:32:04;15.20;99.90
24103;DHT22;12278;53.058;9.028;2022-07-23T05:36:05;15.30;99.90
24103;DHT22;12278;53.058;9.028;2022-07-23T05:40:08;15.40;99.90
24103;DHT22;12278;53.058;9.028;2022-07-23T05:44:10;15.40;99.90
24103;DHT22;12278;53.058;9.028;2022-07-23T05:48:11;15.40;99.90
24103;DHT22;12278;53.058;9.028;2022-07-23T05:52:12;15.50;99.90
24103;DHT22;12278;53.058;9.028;2022-07-23T05:56:13;15.50;99.90
24103;DHT22;12278;53.058;9.028;2022-07-23T06:00:14;15.70;99.90
24103;DHT22;12278;53.058;9.028;2022-07-23T06:04:15;15.90;99.90
24103;DHT22;12278;53.058;9.028;2022-07-23T06:08:16;16.00;99.90
24103;DHT22;12278;53.058;9.028;2022-07-23T06:12:18;16.10;99.90
24103;DHT22;12278;53.058;9.028;2022-07-23T06:16:19;16.20;99.90
24103;DHT22;12278;53.058;9.028;2022-07-23T06:20:22;16.50;99.90
24103;DHT22;12278;53.058;9.028;2022-07-23T06:24:23;16.70;99.90
24103;DHT22;12278;53.058;9.028;2022-07-23T06:28:23;16.80;99.90
24103;DHT22;12278;53.058;9.028;2022-07-23T06:32:24;16.90;99.90
24103;DHT22;12278;53.058;9.028;2022-07-23T06:36:25;17.00;99.90
24103;DHT22;12278;53.058;9.028;2022-07-23T06:40:27;17.20;99.90
24103;DHT22;12278;53.058;9.028;2022-07-23T06:44:28;17.60;99.90
24103;DHT22;12278;53.058;9.028;2022-07-23T06:48:29;17.60;99.90
24103;DHT22;12278;53.058;9.028;2022-07-23T06:52:30;17.80;99.90
24103;DHT22;12278;53.058;9.028;2022-07-23T06:56:30;17.90;99.90
24103;DHT22;12278;53.058;9.028;2022-07-23T07:00:31;17.90;99.90
24103;DHT22;12278;53.058;9.028;2022-07-23T07:04:32;17.60;99.90
24103;DHT22;12278;53.058;9.028;2022-07-23T07:08:33;17.50;99.90
24103;DHT22;12278;53.058;9.028;2022-07-23T07:12:34;17.40;99.90
24103;DHT22;12278;53.058;9.028;2022-07-23T07:16:35;17.40;99.90
24103;DHT22;12278;53.058;9.028;2022-07-23T07:20:36;17.60;99.90
24103;DHT22;12278;53.058;9.028;2022-07-23T07:24:37;17.80;99.90
24103;DHT22;12278;53.058;9.028;2022-07-23T07:28:38;18.50;99.90
24103;DHT22;12278;53.058;9.028;2022-07-23T07:32:39;19.30;99.90
24103;DHT22;12278;53.058;9.028;2022-07-23T07:36:40;19.70;99.90
24103;DHT22;12278;53.058;9.028;2022-07-23T07:40:41;20.40;99.90
24103;DHT22;12278;53.058;9.028;2022-07-23T07:44:42;20.50;99.90
24103;DHT22;12278;53.058;9.028;2022-07-23T07:48:42;20.40;99.90
24103;DHT22;12278;53.058;9.028;2022-07-23T07:52:43;20.50;99.90
24103;DHT22;12278;53.058;9.028;2022-07-23T07:56:44;19.50;99.90
24103;DHT22;12278;53.058;9.028;2022-07-23T08:00:45;18.70;99.90
24103;DHT22;12278;53.058;9.028;2022-07-23T08:04:47;19.90;99.90
24103;DHT22;12278;53.058;9.028;2022-07-23T08:08:49;21.10;99.90
24103;DHT22;12278;53.058;9.028;2022-07-23T08:12:52;20.40;99.90
24103;DHT22;12278;53.058;9.028;2022-07-23T08:16:54;19.70;99.90
24103;DHT22;12278;53.058;9.028;2022-07-23T08:20:54;19.30;99.90
24103;DHT22;12278;53.058;9.028;2022-07-23T08:24:55;19.70;99.90
24103;DHT22;12278;53.058;9.028;2022-07-23T08:28:57;19.60;99.90
24103;DHT22;12278;53.058;9.028;2022-07-23T08:33:07;19.80;99.90
24103;DHT22;12278;53.058;9.028;2022-07-23T08:37:15;19.60;99.90
24103;DHT22;12278;53.058;9.028;2022-07-23T08:41:16;19.10;99.90
24103;DHT22;12278;53.058;9.028;2022-07-23T08:45:19;19.10;99.90
24103;DHT22;12278;53.058;9.028;2022-07-23T08:49:22;19.20;99.90
24103;DHT22;12278;53.058;9.028;2022-07-23T08:53:25;19.20;99.90
24103;DHT22;12278;53.058;9.028;2022-07-23T08:57:27;19.20;99.90
24103;DHT22;12278;53.058;9.028;2022-07-23T09:01:28;19.60;99.90
24103;DHT22;12278;53.058;9.028;2022-07-23T09:05:29;19.60;99.90
24103;DHT22;12278;53.058;9.028;2022-07-23T09:09:30;19.50;99.90
24103;DHT22;12278;53.058;9.028;2022-07-23T09:13:47;19.80;99.90
24103;DHT22;12278;53.058;9.028;2022-07-23T09:17:50;19.80;99.90
24103;DHT22;12278;53.058;9.028;2022-07-23T09:21:51;19.80;99.90
24103;DHT22;12278;53.058;9.028;2022-07-23T09:25:52;19.80;99.90
24103;DHT22;12278;53.058;9.028;2022-07-23T09:29:56;19.60;99.90
24103;DHT22;12278;53.058;9.028;2022-07-23T09:38:23;19.20;99.90
24103;DHT22;12278;53.058;9.028;2022-07-23T09:42:25;19.50;99.90
24103;DHT22;12278;53.058;9.028;2022-07-23T09:46:27;19.90;99.90
24103;DHT22;12278;53.058;9.028;2022-07-23T09:50:28;20.10;99.90
24103;DHT22;12278;53.058;9.028;2022-07-23T09:54:37;20.00;99.90
24103;DHT22;12278;53.058;9.028;2022-07-23T09:58:40;20.00;99.90
24103;DHT22;12278;53.058;9.028;2022-07-23T10:02:47;20.20;99.90
24103;DHT22;12278;53.058;9.028;2022-07-23T10:06:56;20.50;99.90
24103;DHT22;12278;53.058;9.028;2022-07-23T10:11:00;20.80;99.90
24103;DHT22;12278;53.058;9.028;2022-07-23T10:15:04;20.80;99.90
24103;DHT22;12278;53.058;9.028;2022-07-23T10:19:07;21.20;99.90
24103;DHT22;12278;53.058;9.028;2022-07-23T10:23:19;21.40;99.90
24103;DHT22;12278;53.058;9.028;2022-07-23T10:41:36;21.40;99.90
24103;DHT22;12278;53.058;9.028;2022-07-23T10:45:43;20.80;99.90
24103;DHT22;12278;53.058;9.028;2022-07-23T10:49:44;20.70;99.90
24103;DHT22;12278;53.058;9.028;2022-07-23T10:57:52;20.60;99.90
24103;DHT22;12278;53.058;9.028;2022-07-23T11:01:53;21.70;99.90
24103;DHT22;12278;53.058;9.028;2022-07-23T11:06:21;22.00;99.90
24103;DHT22;12278;53.058;9.028;2022-07-23T11:10:50;21.50;99.90
24103;DHT22;12278;53.058;9.028;2022-07-23T11:15:06;21.20;99.90
24103;DHT22;12278;53.058;9.028;2022-07-23T11:19:07;21.50;99.90
24103;DHT22;12278;53.058;9.028;2022-07-23T11:23:08;22.70;99.90
24103;DHT22;12278;53.058;9.028;2022-07-23T11:27:10;22.90;98.70
24103;DHT22;12278;53.058;9.028;2022-07-23T11:31:17;23.90;99.90
24103;DHT22;12278;53.058;9.028;2022-07-23T11:35:25;24.00;99.90
24103;DHT22;12278;53.058;9.028;2022-07-23T11:39:28;24.00;98.80
24103;DHT22;12278;53.058;9.028;2022-07-23T11:43:31;23.10;99.20
24103;DHT22;12278;53.058;9.028;2022-07-23T11:47:31;23.90;98.00
24103;DHT22;12278;53.058;9.028;2022-07-23T11:51:32;23.60;97.10
24103;DHT22;12278;53.058;9.028;2022-07-23T11:55:33;23.00;97.30
24103;DHT22;12278;53.058;9.028;2022-07-23T11:59:34;23.50;97.60
24103;DHT22;12278;53.058;9.028;2022-07-23T12:03:37;23.70;99.70
24103;DHT22;12278;53.058;9.028;2022-07-23T12:07:53;24.70;98.30
24103;DHT22;12278;53.058;9.028;2022-07-23T12:11:59;24.00;96.60
24103;DHT22;12278;53.058;9.028;2022-07-23T12:16:00;23.80;98.20
24103;DHT22;12278;53.058;9.028;2022-07-23T12:20:02;23.10;98.50
24103;DHT22;12278;53.058;9.028;2022-07-23T12:24:06;22.40;99.00
24103;DHT22;12278;53.058;9.028;2022-07-23T12:32:44;22.50;98.90
24103;DHT22;12278;53.058;9.028;2022-07-23T12:36:43;22.40;99.00
24103;DHT22;12278;53.058;9.028;2022-07-23T12:40:51;21.90;99.90
24103;DHT22;12278;53.058;9.028;2022-07-23T12:45:06;23.10;99.90
24103;DHT22;12278;53.058;9.028;2022-07-23T12:49:08;24.40;98.60
24103;DHT22;12278;53.058;9.028;2022-07-23T12:53:16;23.90;98.20
24103;DHT22;12278;53.058;9.028;2022-07-23T12:57:18;24.80;99.60
24103;DHT22;12278;53.058;9.028;2022-07-23T13:01:23;25.00;98.70
24103;DHT22;12278;53.058;9.028;2022-07-23T13:05:24;25.10;96.10
24103;DHT22;12278;53.058;9.028;2022-07-23T13:09:27;23.90;97.40
24103;DHT22;12278;53.058;9.028;2022-07-23T13:13:31;22.90;98.70
24103;DHT22;12278;53.058;9.028;2022-07-23T13:17:34;23.50;98.40
24103;DHT22;12278;53.058;9.028;2022-07-23T13:21:35;24.50;98.90
24103;DHT22;12278;53.058;9.028;2022-07-23T13:25:36;25.10;97.20
24103;DHT22;12278;53.058;9.028;2022-07-23T13:29:37;24.30;96.70
24103;DHT22;12278;53.058;9.028;2022-07-23T13:33:38;23.60;97.10
24103;DHT22;12278;53.058;9.028;2022-07-23T13:37:39;23.50;97.70
24103;DHT22;12278;53.058;9.028;2022-07-23T13:41:39;25.00;95.50
24103;DHT22;12278;53.058;9.028;2022-07-23T13:45:42;26.30;94.20
24103;DHT22;12278;53.058;9.028;2022-07-23T13:49:43;27.30;90.90
24103;DHT22;12278;53.058;9.028;2022-07-23T13:53:44;25.40;93.60
24103;DHT22;12278;53.058;9.028;2022-07-23T13:57:46;24.50;96.50
24103;DHT22;12278;53.058;9.028;2022-07-23T14:01:48;27.00;93.40
24103;DHT22;12278;53.058;9.028;2022-07-23T14:05:49;27.10;91.60
24103;DHT22;12278;53.058;9.028;2022-07-23T14:09:51;26.70;91.60
24103;DHT22;12278;53.058;9.028;2022-07-23T14:13:52;25.30;93.10
24103;DHT22;12278;53.058;9.028;2022-07-23T14:17:53;24.40;93.80
24103;DHT22;12278;53.058;9.028;2022-07-23T14:21:55;23.60;95.10
24103;DHT22;12278;53.058;9.028;2022-07-23T14:25:56;24.70;95.70
24103;DHT22;12278;53.058;9.028;2022-07-23T14:29:58;27.50;92.10
24103;DHT22;12278;53.058;9.028;2022-07-23T14:33:58;27.90;88.90
24103;DHT22;12278;53.058;9.028;2022-07-23T14:37:59;26.30;91.50
24103;DHT22;12278;53.058;9.028;2022-07-23T14:42:00;26.20;91.80
24103;DHT22;12278;53.058;9.028;2022-07-23T14:46:01;24.90;93.30
24103;DHT22;12278;53.058;9.028;2022-07-23T14:50:04;26.90;92.50
24103;DHT22;12278;53.058;9.028;2022-07-23T14:54:05;28.10;91.20
24103;DHT22;12278;53.058;9.028;2022-07-23T14:58:06;27.60;90.30
24103;DHT22;12278;53.058;9.028;2022-07-23T15:02:07;26.70;91.90
24103;DHT22;12278;53.058;9.028;2022-07-23T15:06:09;24.90;93.30
24103;DHT22;12278;53.058;9.028;2022-07-23T15:10:11;24.20;95.00
24103;DHT22;12278;53.058;9.028;2022-07-23T15:14:13;23.10;96.40
24103;DHT22;12278;53.058;9.028;2022-07-23T15:18:14;25.40;95.60
24103;DHT22;12278;53.058;9.028;2022-07-23T15:22:15;27.30;93.40
24103;DHT22;12278;53.058;9.028;2022-07-23T15:26:17;28.20;91.10
24103;DHT22;12278;53.058;9.028;2022-07-23T15:30:18;28.70;88.50
24103;DHT22;12278;53.058;9.028;2022-07-23T15:34:19;29.10;89.70
24103;DHT22;12278;53.058;9.028;2022-07-23T15:38:20;29.50;86.70
24103;DHT22;12278;53.058;9.028;2022-07-23T15:42:21;28.50;89.00
24103;DHT22;12278;53.058;9.028;2022-07-23T15:46:22;29.30;85.00
24103;DHT22;12278;53.058;9.028;2022-07-23T15:50:24;27.70;89.00
24103;DHT22;12278;53.058;9.028;2022-07-23T15:54:25;27.10;91.20
24103;DHT22;12278;53.058;9.028;2022-07-23T15:58:27;25.70;92.40
24103;DHT22;12278;53.058;9.028;2022-07-23T16:02:29;27.00;91.10
24103;DHT22;12278;53.058;9.028;2022-07-23T16:06:32;28.70;86.10
24103;DHT22;12278;53.058;9.028;2022-07-23T16:10:33;29.30;84.90
24103;DHT22;12278;53.058;9.028;2022-07-23T16:14:34;30.00;82.90
24103;DHT22;12278;53.058;9.028;2022-07-23T16:18:36;29.40;81.50
24103;DHT22;12278;53.058;9.028;2022-07-23T16:22:38;29.50;84.30
24103;DHT22;12278;53.058;9.028;2022-07-23T16:26:39;29.40;81.50
24103;DHT22;12278;53.058;9.028;2022-07-23T16:30:40;29.20;82.70
24103;DHT22;12278;53.058;9.028;2022-07-23T16:34:41;28.80;82.90
24103;DHT22;12278;53.058;9.028;2022-07-23T16:38:42;29.00;85.20
24103;DHT22;12278;53.058;9.028;2022-07-23T16:42:43;28.90;84.40
24103;DHT22;12278;53.058;9.028;2022-07-23T16:46:44;27.40;87.90
24103;DHT22;12278;53.058;9.028;2022-07-23T16:50:46;26.90;88.80
24103;DHT22;12278;53.058;9.028;2022-07-23T16:54:47;25.50;91.50
24103;DHT22;12278;53.058;9.028;2022-07-23T16:58:49;24.90;92.80
24103;DHT22;12278;53.058;9.028;2022-07-23T17:02:50;24.20;93.90
24103;DHT22;12278;53.058;9.028;2022-07-23T17:06:51;23.90;94.60
24103;DHT22;12278;53.058;9.028;2022-07-23T17:10:52;23.30;95.20
24103;DHT22;12278;53.058;9.028;2022-07-23T17:14:53;22.50;96.60
24103;DHT22;12278;53.058;9.028;2022-07-23T17:18:58;22.30;97.20
24103;DHT22;12278;53.058;9.028;2022-07-23T17:22:59;22.10;98.80
24103;DHT22;12278;53.058;9.028;2022-07-23T17:27:00;22.00;99.10
24103;DHT22;12278;53.058;9.028;2022-07-23T17:31:01;21.90;99.70
24103;DHT22;12278;53.058;9.028;2022-07-23T17:35:03;21.70;99.90
24103;DHT22;12278;53.058;9.028;2022-07-23T17:39:06;21.50;99.70
24103;DHT22;12278;53.058;9.028;2022-07-23T17:43:07;21.40;99.90
24103;DHT22;12278;53.058;9.028;2022-07-23T17:47:08;21.20;99.90
24103;DHT22;12278;53.058;9.028;2022-07-23T17:51:10;21.10;99.90
24103;DHT22;12278;53.058;9.028;2022-07-23T17:55:11;21.00;99.90
24103;DHT22;12278;53.058;9.028;2022-07-23T17:59:15;21.00;99.90
24103;DHT22;12278;53.058;9.028;2022-07-23T18:03:16;20.80;99.90
24103;DHT22;12278;53.058;9.028;2022-07-23T18:07:17;20.70;99.90
24103;DHT22;12278;53.058;9.028;2022-07-23T18:11:19;20.60;99.90
24103;DHT22;12278;53.058;9.028;2022-07-23T18:15:20;20.60;99.90
24103;DHT22;12278;53.058;9.028;2022-07-23T18:19:21;20.40;99.90
24103;DHT22;12278;53.058;9.028;2022-07-23T18:23:24;20.40;99.90
24103;DHT22;12278;53.058;9.028;2022-07-23T18:27:25;20.30;99.90
24103;DHT22;12278;53.058;9.028;2022-07-23T18:31:26;20.10;99.90
24103;DHT22;12278;53.058;9.028;2022-07-23T18:35:27;20.00;99.90
24103;DHT22;12278;53.058;9.028;2022-07-23T18:39:28;19.80;99.90
24103;DHT22;12278;53.058;9.028;2022-07-23T18:43:31;19.60;99.90
24103;DHT22;12278;53.058;9.028;2022-07-23T18:47:35;19.50;99.90
24103;DHT22;12278;53.058;9.028;2022-07-23T18:51:36;19.30;99.90
24103;DHT22;12278;53.058;9.028;2022-07-23T18:55:37;19.20;99.90
24103;DHT22;12278;53.058;9.028;2022-07-23T18:59:39;19.10;99.90
24103;DHT22;12278;53.058;9.028;2022-07-23T19:03:41;18.90;99.90
24103;DHT22;12278;53.058;9.028;2022-07-23T19:07:42;18.70;99.90
24103;DHT22;12278;53.058;9.028;2022-07-23T19:11:43;18.60;99.90
24103;DHT22;12278;53.058;9.028;2022-07-23T19:15:44;18.60;99.90
24103;DHT22;12278;53.058;9.028;2022-07-23T19:19:47;18.50;99.90
24103;DHT22;12278;53.058;9.028;2022-07-23T19:23:48;18.40;99.90
24103;DHT22;12278;53.058;9.028;2022-07-23T19:27:49;18.20;99.90
24103;DHT22;12278;53.058;9.028;2022-07-23T19:31:49;18.10;99.90
24103;DHT22;12278;53.058;9.028;2022-07-23T19:35:50;18.10;99.90
24103;DHT22;12278;53.058;9.028;2022-07-23T19:39:51;18.00;99.90
24103;DHT22;12278;53.058;9.028;2022-07-23T19:43:52;18.00;99.90
24103;DHT22;12278;53.058;9.028;2022-07-23T19:47:53;17.80;99.90
24103;DHT22;12278;53.058;9.028;2022-07-23T19:51:54;17.70;99.90
24103;DHT22;12278;53.058;9.028;2022-07-23T19:55:55;17.60;99.90
24103;DHT22;12278;53.058;9.028;2022-07-23T19:59:56;17.40;99.90
24103;DHT22;12278;53.058;9.028;2022-07-23T20:03:57;17.30;99.90
24103;DHT22;12278;53.058;9.028;2022-07-23T20:07:59;17.20;99.90
24103;DHT22;12278;53.058;9.028;2022-07-23T20:11:59;17.20;99.90
24103;DHT22;12278;53.058;9.028;2022-07-23T20:16:00;17.20;99.90
24103;DHT22;12278;53.058;9.028;2022-07-23T20:20:02;17.10;99.90
24103;DHT22;12278;53.058;9.028;2022-07-23T20:24:06;17.00;99.90
24103;DHT22;12278;53.058;9.028;2022-07-23T20:28:07;16.90;99.90
24103;DHT22;12278;53.058;9.028;2022-07-23T20:32:08;16.80;99.90
24103;DHT22;12278;53.058;9.028;2022-07-23T20:36:10;16.80;99.90
24103;DHT22;12278;53.058;9.028;2022-07-23T20:40:11;16.70;99.90
24103;DHT22;12278;53.058;9.028;2022-07-23T20:44:12;16.70;99.90
24103;DHT22;12278;53.058;9.028;2022-07-23T20:48:13;16.60;99.90
24103;DHT22;12278;53.058;9.028;2022-07-23T20:52:14;16.60;99.90
24103;DHT22;12278;53.058;9.028;2022-07-23T20:56:16;16.50;99.90
24103;DHT22;12278;53.058;9.028;2022-07-23T21:00:20;16.50;99.90
24103;DHT22;12278;53.058;9.028;2022-07-23T21:04:21;16.50;99.90
24103;DHT22;12278;53.058;9.028;2022-07-23T21:08:22;16.40;99.90
24103;DHT22;12278;53.058;9.028;2022-07-23T21:12:23;16.30;99.90
24103;DHT22;12278;53.058;9.028;2022-07-23T21:16:25;16.20;99.90
24103;DHT22;12278;53.058;9.028;2022-07-23T21:20:26;16.20;99.90
24103;DHT22;12278;53.058;9.028;2022-07-23T21:24:47;16.20;99.90
24103;DHT22;12278;53.058;9.028;2022-07-23T21:28:48;16.10;99.90
24103;DHT22;12278;53.058;9.028;2022-07-23T21:32:49;16.00;99.90
24103;DHT22;12278;53.058;9.028;2022-07-23T21:36:50;16.00;99.90
24103;DHT22;12278;53.058;9.028;2022-07-23T21:40:52;15.80;99.90
24103;DHT22;12278;53.058;9.028;2022-07-23T21:44:54;15.70;99.90
24103;DHT22;12278;53.058;9.028;2022-07-23T21:48:55;15.70;99.90
24103;DHT22;12278;53.058;9.028;2022-07-23T21:52:59;15.70;99.90
24103;DHT22;12278;53.058;9.028;2022-07-23T21:56:59;15.60;99.90
24103;DHT22;12278;53.058;9.028;2022-07-23T22:01:00;15.60;99.90
24103;DHT22;12278;53.058;9.028;2022-07-23T22:05:03;15.50;99.90
24103;DHT22;12278;53.058;9.028;2022-07-23T22:09:04;15.40;99.90
24103;DHT22;12278;53.058;9.028;2022-07-23T22:13:05;15.30;99.90
24103;DHT22;12278;53.058;9.028;2022-07-23T22:17:06;15.20;99.90
24103;DHT22;12278;53.058;9.028;2022-07-23T22:21:08;15.30;99.90
24103;DHT22;12278;53.058;9.028;2022-07-23T22:25:09;15.20;99.90
24103;DHT22;12278;53.058;9.028;2022-07-23T22:29:11;15.10;99.90
24103;DHT22;12278;53.058;9.028;2022-07-23T22:33:12;15.00;99.90
24103;DHT22;12278;53.058;9.028;2022-07-23T22:37:14;15.00;99.90
24103;DHT22;12278;53.058;9.028;2022-07-23T22:41:15;15.00;99.90
24103;DHT22;12278;53.058;9.028;2022-07-23T22:45:15;15.00;99.90
24103;DHT22;12278;53.058;9.028;2022-07-23T22:49:16;15.00;99.90
24103;DHT22;12278;53.058;9.028;2022-07-23T22:53:17;14.90;99.90
24103;DHT22;12278;53.058;9.028;2022-07-23T22:57:18;14.90;99.90
24103;DHT22;12278;53.058;9.028;2022-07-23T23:01:19;14.80;99.90
24103;DHT22;12278;53.058;9.028;2022-07-23T23:05:20;14.80;99.90
24103;DHT22;12278;53.058;9.028;2022-07-23T23:09:20;14.80;99.90
24103;DHT22;12278;53.058;9.028;2022-07-23T23:13:21;14.70;99.90
24103;DHT22;12278;53.058;9.028;2022-07-23T23:17:22;14.60;99.90
24103;DHT22;12278;53.058;9.028;2022-07-23T23:21:23;14.60;99.90
24103;DHT22;12278;53.058;9.028;2022-07-23T23:25:24;14.50;99.90
24103;DHT22;12278;53.058;9.028;2022-07-23T23:29:25;14.40;99.90
24103;DHT22;12278;53.058;9.028;2022-07-23T23:33:26;14.40;99.90
24103;DHT22;12278;53.058;9.028;2022-07-23T23:37:26;14.20;99.90
24103;DHT22;12278;53.058;9.028;2022-07-23T23:41:27;14.30;99.90
24103;DHT22;12278;53.058;9.028;2022-07-23T23:45:28;14.40;99.90
24103;DHT22;12278;53.058;9.028;2022-07-23T23:49:29;14.40;99.90
24103;DHT22;12278;53.058;9.028;2022-07-23T23:53:30;14.30;99.90
24103;DHT22;12278;53.058;9.028;2022-07-23T23:57:31;14.20;99.90
